createdAt,value
2023-02-28T00:00:57.599Z,-1.17
2023-02-28T00:03:47.277Z,-1.19
2023-02-28T00:06:37.606Z,-1.20
2023-02-28T00:09:27.710Z,-1.23
2023-02-28T00:12:17.707Z,-1.18
2023-02-28T00:15:09.513Z,-1.24
2023-02-28T00:18:01.021Z,-1.31
2023-02-28T00:20:51.234Z,-1.25
2023-02-28T00:23:41.426Z,-1.27
2023-02-28T00:26:30.967Z,-1.26
2023-02-28T00:29:20.986Z,-1.35
2023-02-28T00:32:10.687Z,-1.38
2023-02-28T00:35:02.804Z,-1.37
2023-02-28T00:37:52.702Z,-1.36
2023-02-28T00:40:42.760Z,-1.31
2023-02-28T00:43:35.514Z,-1.42
2023-02-28T00:46:25.249Z,-1.44
2023-02-28T00:49:14.539Z,-1.41
2023-02-28T00:52:08.762Z,-1.46
2023-02-28T00:54:58.650Z,-1.54
2023-02-28T00:57:48.377Z,-1.52
2023-02-28T01:00:38.953Z,-1.60
2023-02-28T01:03:28.825Z,-1.56
2023-02-28T01:06:18.473Z,-1.51
2023-02-28T01:09:10.285Z,-1.47
2023-02-28T01:12:00.486Z,-1.53
2023-02-28T01:14:50.708Z,-1.50
2023-02-28T01:17:40.469Z,-1.57
2023-02-28T01:20:30.738Z,-1.56
2023-02-28T01:23:21.057Z,-1.63
2023-02-28T01:26:15.313Z,-1.62
2023-02-28T01:29:07.814Z,-1.54
2023-02-28T01:31:58.618Z,-1.60
2023-02-28T01:34:48.663Z,-1.58
2023-02-28T01:37:38.460Z,-1.69
2023-02-28T01:40:28.650Z,-1.73
2023-02-28T01:43:24.882Z,-1.71
2023-02-28T01:46:15.428Z,-1.82
2023-02-28T01:49:10.472Z,-1.73
2023-02-28T01:52:02.064Z,-1.71
2023-02-28T01:54:54.345Z,-1.70
2023-02-28T01:57:46.119Z,-1.66
2023-02-28T02:00:42.116Z,-1.72
2023-02-28T02:03:33.914Z,-1.79
2023-02-28T02:06:25.418Z,-1.70
2023-02-28T02:09:15.864Z,-1.76
2023-02-28T02:12:24.784Z,-1.66
2023-02-28T02:15:18.761Z,-1.59
2023-02-28T02:18:17.350Z,-1.57
2023-02-28T02:21:43.488Z,-1.65
2023-02-28T02:24:52.703Z,-1.73
2023-02-28T02:28:14.147Z,-1.70
2023-02-28T02:31:27.660Z,-1.71
2023-02-28T02:34:45.627Z,-1.75
2023-02-28T02:38:00.195Z,-1.84
2023-02-28T02:40:53.552Z,-1.93
2023-02-28T02:43:48.081Z,-1.87
2023-02-28T02:46:40.726Z,-1.94
2023-02-28T02:49:34.160Z,-1.86
2023-02-28T02:52:34.288Z,-1.93
2023-02-28T02:55:25.102Z,-1.96
2023-02-28T02:58:17.848Z,-1.97
2023-02-28T03:01:08.130Z,-1.85
2023-02-28T03:04:00.513Z,-1.91
2023-02-28T03:06:50.059Z,-1.91
2023-02-28T03:09:41.068Z,-1.92
2023-02-28T03:12:43.348Z,-2.01
2023-02-28T03:15:39.167Z,-2.03
2023-02-28T03:18:39.518Z,-2.01
2023-02-28T03:21:33.481Z,-2.02
2023-02-28T03:24:28.599Z,-2.06
2023-02-28T03:27:26.153Z,-2.12
2023-02-28T03:30:22.968Z,-2.13
2023-02-28T03:33:15.754Z,-2.12
2023-02-28T03:36:07.768Z,-2.13
2023-02-28T03:39:03.401Z,-2.10
2023-02-28T03:41:56.826Z,-2.13
2023-02-28T03:44:51.719Z,-2.07
2023-02-28T03:47:47.396Z,-2.13
2023-02-28T03:50:39.464Z,-2.09
2023-02-28T03:53:31.646Z,-2.07
2023-02-28T03:56:23.690Z,-2.19
2023-02-28T03:59:16.942Z,-2.21
2023-02-28T04:02:08.376Z,-2.18
2023-02-28T04:09:56.662Z,-2.17
2023-02-28T04:12:46.460Z,-2.19
2023-02-28T04:15:39.342Z,-2.20
2023-02-28T04:18:31.227Z,-2.13
2023-02-28T04:21:24.041Z,-2.16
2023-02-28T04:24:16.508Z,-2.15
2023-02-28T04:27:06.545Z,-2.19
2023-02-28T04:29:57.215Z,-2.15
2023-02-28T04:32:48.455Z,-2.21
2023-02-28T04:35:40.227Z,-2.20
2023-02-28T04:38:32.706Z,-2.16
2023-02-28T04:41:22.520Z,-2.16
2023-02-28T04:44:12.475Z,-2.13
2023-02-28T04:47:02.668Z,-2.14
2023-02-28T04:49:52.950Z,-2.17
2023-02-28T04:52:47.560Z,-2.16
2023-02-28T04:55:43.389Z,-2.21
2023-02-28T04:58:39.706Z,-2.21
2023-02-28T05:01:31.894Z,-2.18
2023-02-28T05:04:22.433Z,-2.13
2023-02-28T05:07:13.150Z,-2.13
2023-02-28T05:10:05.031Z,-2.20
2023-02-28T05:12:56.381Z,-2.23
2023-02-28T05:15:46.322Z,-2.33
2023-02-28T05:18:36.466Z,-2.25
2023-02-28T05:21:29.025Z,-2.21
2023-02-28T05:24:24.038Z,-2.23
2023-02-28T05:27:15.146Z,-2.31
2023-02-28T05:30:05.845Z,-2.33
2023-02-28T05:32:56.028Z,-2.26
2023-02-28T05:35:46.003Z,-2.18
2023-02-28T05:38:37.779Z,-2.22
2023-02-28T05:41:29.387Z,-2.16
2023-02-28T05:44:22.399Z,-2.18
2023-02-28T05:47:12.030Z,-2.21
2023-02-28T05:50:02.509Z,-2.22
2023-02-28T05:52:52.687Z,-2.23
2023-02-28T05:55:42.867Z,-2.25
2023-02-28T05:58:33.177Z,-2.28
2023-02-28T06:01:34.751Z,-2.19
2023-02-28T06:04:31.794Z,-2.19
2023-02-28T06:07:23.859Z,-2.26
2023-02-28T06:10:15.108Z,-2.28
2023-02-28T06:13:05.824Z,-2.28
2023-02-28T06:15:55.860Z,-2.31
2023-02-28T06:18:47.448Z,-2.28
2023-02-28T06:21:38.482Z,-2.32
2023-02-28T06:24:32.262Z,-2.25
2023-02-28T06:27:22.438Z,-2.24
2023-02-28T06:30:13.545Z,-2.24
2023-02-28T06:33:03.230Z,-2.19
2023-02-28T06:35:55.109Z,-2.22
2023-02-28T06:38:47.413Z,-2.24
2023-02-28T06:41:53.986Z,-2.17
2023-02-28T06:44:44.620Z,-2.16
2023-02-28T06:47:34.441Z,-2.15
2023-02-28T06:50:24.361Z,-2.14
2023-02-28T06:53:16.074Z,-2.13
2023-02-28T06:56:08.095Z,-2.15
2023-02-28T06:58:58.302Z,-2.09
2023-02-28T07:01:48.765Z,-2.01
2023-02-28T07:04:41.875Z,-2.03
2023-02-28T07:07:31.735Z,-2.02
2023-02-28T07:10:23.163Z,-2.00
2023-02-28T07:13:13.674Z,-1.93
2023-02-28T07:16:05.543Z,-1.95
2023-02-28T07:18:55.491Z,-1.95
2023-02-28T07:21:45.146Z,-1.91
2023-02-28T07:24:34.513Z,-1.85
2023-02-28T07:27:26.897Z,-1.80
2023-02-28T07:30:17.436Z,-1.74
2023-02-28T07:33:07.541Z,-1.80
2023-02-28T07:36:03.886Z,-1.74
2023-02-28T07:38:56.327Z,-1.68
2023-02-28T07:41:46.214Z,-1.60
2023-02-28T07:44:41.638Z,-1.51
2023-02-28T07:47:32.445Z,-1.44
2023-02-28T07:50:27.042Z,-1.40
2023-02-28T07:53:17.430Z,-1.31
2023-02-28T07:56:08.568Z,-1.25
2023-02-28T07:58:58.528Z,-1.23
2023-02-28T08:01:51.662Z,-1.12
2023-02-28T08:04:43.960Z,-1.13
2023-02-28T08:07:34.793Z,-1.09
2023-02-28T08:10:25.402Z,-0.99
2023-02-28T08:13:15.831Z,-0.97
2023-02-28T08:16:06.046Z,-0.96
2023-02-28T08:18:57.709Z,-0.91
2023-02-28T08:21:48.145Z,-0.83
2023-02-28T08:24:38.660Z,-0.77
2023-02-28T08:27:28.843Z,-0.66
2023-02-28T08:30:18.928Z,-0.58
2023-02-28T08:33:09.082Z,-0.59
2023-02-28T08:36:00.450Z,-0.52
2023-02-28T08:38:50.358Z,-0.44
2023-02-28T08:41:40.303Z,-0.39
2023-02-28T08:44:30.515Z,-0.32
2023-02-28T08:47:23.976Z,-0.31
2023-02-28T08:50:16.427Z,-0.25
2023-02-28T08:53:07.603Z,-0.13
2023-02-28T08:56:07.339Z,-0.14
2023-02-28T08:58:58.136Z,-0.06
2023-02-28T09:01:48.143Z,0.03
2023-02-28T09:04:38.280Z,0.08
2023-02-28T09:07:28.174Z,0.15
2023-02-28T09:10:19.825Z,0.21
2023-02-28T09:13:09.703Z,0.32
2023-02-28T09:16:00.834Z,0.34
2023-02-28T09:18:51.088Z,0.38
2023-02-28T09:21:41.615Z,0.35
2023-02-28T09:24:33.929Z,0.37
2023-02-28T09:27:25.375Z,0.38
2023-02-28T09:30:17.615Z,0.49
2023-02-28T09:33:07.618Z,0.56
2023-02-28T09:36:02.051Z,0.58
2023-02-28T09:38:54.329Z,0.69
2023-02-28T09:41:49.952Z,0.80
2023-02-28T09:44:45.455Z,0.83
2023-02-28T09:47:40.770Z,0.90
2023-02-28T09:50:35.077Z,0.92
2023-02-28T09:53:29.957Z,0.88
2023-02-28T09:56:28.030Z,0.94
2023-02-28T09:59:28.794Z,1.01
2023-02-28T10:02:44.674Z,1.05
2023-02-28T10:05:37.841Z,1.10
2023-02-28T10:08:29.828Z,1.06
2023-02-28T10:11:21.780Z,1.15
2023-02-28T10:14:17.126Z,1.26
2023-02-28T10:17:09.759Z,1.30
2023-02-28T10:20:09.172Z,1.26
2023-02-28T10:23:08.374Z,1.28
2023-02-28T10:26:01.708Z,1.27
2023-02-28T10:28:51.598Z,1.38
2023-02-28T10:31:41.587Z,1.43
2023-02-28T10:34:31.851Z,1.38
2023-02-28T10:37:27.032Z,1.46
2023-02-28T10:40:30.515Z,1.57
2023-02-28T10:43:23.795Z,1.68
2023-02-28T10:46:27.258Z,1.72
2023-02-28T10:49:20.130Z,1.82
2023-02-28T10:52:12.370Z,1.88
2023-02-28T10:55:23.169Z,1.88
2023-02-28T10:58:30.570Z,1.87
2023-02-28T11:01:22.052Z,1.81
2023-02-28T11:04:23.239Z,2.00
2023-02-28T11:07:23.008Z,2.12
2023-02-28T11:10:23.251Z,2.09
2023-02-28T11:13:20.530Z,2.17
2023-02-28T11:16:12.205Z,2.25
2023-02-28T11:19:02.436Z,2.35
2023-02-28T11:21:56.260Z,2.45
2023-02-28T11:24:49.054Z,2.47
2023-02-28T11:28:03.507Z,2.53
2023-02-28T11:31:03.644Z,2.68
2023-02-28T11:33:55.089Z,2.72
2023-02-28T11:36:45.913Z,2.62
2023-02-28T11:39:36.353Z,2.57
2023-02-28T11:42:34.929Z,2.56
2023-02-28T11:45:44.170Z,2.47
2023-02-28T11:48:39.510Z,2.50
2023-02-28T11:51:36.781Z,2.58
2023-02-28T11:54:45.373Z,2.68
2023-02-28T11:57:56.366Z,2.77
2023-02-28T12:01:03.873Z,2.84
2023-02-28T12:04:01.153Z,2.90
2023-02-28T12:06:53.464Z,2.97
2023-02-28T12:09:49.901Z,2.87
2023-02-28T12:12:50.538Z,2.82
2023-02-28T12:15:50.559Z,2.83
2023-02-28T12:19:04.928Z,2.85
2023-02-28T12:22:13.628Z,2.85
2023-02-28T12:25:38.784Z,2.89
2023-02-28T12:28:30.439Z,3.00
2023-02-28T12:31:23.112Z,3.11
2023-02-28T12:34:19.060Z,3.14
2023-02-28T12:37:12.716Z,3.16
2023-02-28T12:40:07.311Z,3.21
2023-02-28T12:42:59.984Z,3.25
2023-02-28T12:45:52.668Z,3.42
2023-02-28T12:48:47.390Z,3.34
2023-02-28T12:51:38.522Z,3.38
2023-02-28T12:54:31.794Z,3.37
2023-02-28T12:57:28.288Z,3.40
2023-02-28T13:00:21.308Z,3.45
2023-02-28T13:03:35.032Z,3.54
2023-02-28T13:06:57.582Z,3.46
2023-02-28T13:09:55.069Z,3.53
2023-02-28T13:12:51.379Z,3.53
2023-02-28T13:15:46.468Z,3.54
2023-02-28T13:18:40.916Z,3.68
2023-02-28T13:21:34.850Z,3.77
2023-02-28T13:24:43.407Z,3.78
2023-02-28T13:27:40.508Z,3.52
2023-02-28T13:31:06.375Z,3.64
2023-02-28T13:34:17.328Z,3.74
2023-02-28T13:37:35.841Z,3.80
2023-02-28T13:40:38.190Z,3.93
2023-02-28T13:44:06.453Z,3.93
2023-02-28T13:47:35.903Z,3.93
2023-02-28T13:50:38.860Z,3.87
2023-02-28T13:54:00.999Z,3.93
2023-02-28T13:56:59.566Z,4.03
2023-02-28T13:59:54.862Z,4.11
2023-02-28T14:02:55.716Z,4.30
2023-02-28T14:05:45.808Z,4.40
2023-02-28T14:08:36.613Z,4.51
2023-02-28T14:11:29.712Z,4.56
2023-02-28T14:14:52.142Z,4.58
2023-02-28T14:17:43.405Z,4.53
2023-02-28T14:20:34.171Z,4.56
2023-02-28T14:23:41.861Z,4.57
2023-02-28T14:26:57.216Z,4.70
2023-02-28T14:30:08.170Z,4.74
2023-02-28T14:33:11.048Z,4.74
2023-02-28T14:36:07.514Z,4.61
2023-02-28T14:38:59.248Z,4.85
2023-02-28T14:41:49.312Z,5.02
2023-02-28T14:44:39.104Z,5.24
2023-02-28T14:47:30.906Z,5.16
2023-02-28T14:50:23.665Z,5.30
2023-02-28T14:53:19.818Z,5.77
2023-02-28T14:56:19.816Z,6.22
2023-02-28T14:59:35.294Z,6.70
2023-02-28T15:02:26.675Z,6.73
2023-02-28T15:05:26.698Z,6.66
2023-02-28T15:08:17.977Z,6.78
2023-02-28T15:11:08.753Z,6.95
2023-02-28T15:13:58.044Z,6.71
2023-02-28T15:16:48.166Z,6.30
2023-02-28T15:19:39.264Z,6.64
2023-02-28T15:22:36.750Z,7.25
2023-02-28T15:25:26.498Z,7.39
2023-02-28T15:28:18.169Z,7.09
2023-02-28T15:31:21.956Z,7.01
2023-02-28T15:34:23.258Z,6.50
2023-02-28T15:37:36.311Z,6.42
2023-02-28T15:40:29.047Z,6.44
2023-02-28T15:43:19.499Z,6.19
2023-02-28T15:46:11.044Z,5.80
2023-02-28T15:49:00.423Z,5.51
2023-02-28T15:51:51.664Z,5.66
2023-02-28T15:54:43.924Z,5.67
2023-02-28T15:57:33.780Z,5.70
2023-02-28T16:00:24.761Z,5.47
2023-02-28T16:03:27.391Z,5.40
2023-02-28T16:06:33.423Z,5.19
2023-02-28T16:09:22.873Z,5.17
2023-02-28T16:12:14.883Z,5.25
2023-02-28T16:15:09.129Z,5.32
2023-02-28T16:17:59.873Z,5.17
2023-02-28T16:20:49.712Z,4.89
2023-02-28T16:23:38.902Z,4.91
2023-02-28T16:26:29.502Z,4.74
2023-02-28T16:29:26.699Z,4.52
2023-02-28T16:32:18.020Z,4.33
2023-02-28T16:35:12.477Z,4.29
2023-02-28T16:38:02.596Z,4.33
2023-02-28T16:40:53.009Z,4.31
2023-02-28T16:43:42.418Z,4.25
2023-02-28T16:46:36.989Z,4.25
2023-02-28T16:49:26.601Z,4.17
2023-02-28T16:52:16.765Z,4.09
2023-02-28T16:55:07.209Z,4.18
2023-02-28T16:57:58.874Z,4.15
2023-02-28T17:00:48.420Z,4.06
2023-02-28T17:03:41.471Z,4.05
2023-02-28T17:06:32.679Z,4.02
2023-02-28T17:09:28.315Z,3.86
2023-02-28T17:12:20.692Z,3.68
2023-02-28T17:15:12.658Z,3.69
2023-02-28T17:18:02.893Z,3.56
2023-02-28T17:20:54.053Z,3.56
2023-02-28T17:23:44.298Z,3.57
2023-02-28T17:26:34.006Z,3.63
2023-02-28T17:29:25.830Z,3.61
2023-02-28T17:32:18.148Z,3.54
2023-02-28T17:35:09.968Z,3.42
2023-02-28T17:38:01.484Z,3.46
2023-02-28T17:40:51.237Z,3.40
2023-02-28T17:43:40.948Z,3.33
2023-02-28T17:46:31.378Z,3.23
2023-02-28T17:49:22.056Z,3.14
2023-02-28T17:52:12.262Z,2.97
2023-02-28T17:55:04.298Z,2.98
2023-02-28T17:57:54.280Z,2.93
2023-02-28T18:00:44.220Z,2.80
2023-02-28T18:03:34.136Z,2.83
2023-02-28T18:06:26.725Z,2.72
2023-02-28T18:09:17.505Z,2.68
2023-02-28T18:12:08.849Z,2.68
2023-02-28T18:14:58.601Z,2.64
2023-02-28T18:17:48.476Z,2.58
2023-02-28T18:20:38.061Z,2.53
2023-02-28T18:23:27.484Z,2.51
2023-02-28T18:26:17.496Z,2.53
2023-02-28T18:29:09.333Z,2.45
2023-02-28T18:31:59.499Z,2.26
2023-02-28T18:34:49.630Z,2.26
2023-02-28T18:37:39.614Z,2.32
2023-02-28T18:40:29.409Z,2.32
2023-02-28T18:43:20.099Z,2.32
2023-02-28T18:46:13.898Z,2.37
2023-02-28T18:49:04.561Z,2.37
2023-02-28T18:51:54.735Z,2.37
2023-02-28T18:54:44.764Z,2.31
2023-02-28T18:57:35.108Z,2.30
2023-02-28T19:00:25.991Z,2.33
2023-02-28T19:03:16.659Z,2.32
2023-02-28T19:06:07.363Z,2.28
2023-02-28T19:08:57.874Z,2.28
2023-02-28T19:11:47.747Z,2.27
2023-02-28T19:14:38.252Z,2.17
2023-02-28T19:17:28.138Z,2.14
2023-02-28T19:20:20.069Z,2.15
2023-02-28T19:23:12.142Z,2.14
2023-02-28T19:26:02.188Z,2.12
2023-02-28T19:28:51.988Z,2.15
2023-02-28T19:31:42.106Z,2.16
2023-02-28T19:34:31.939Z,2.05
2023-02-28T19:37:22.741Z,2.18
2023-02-28T19:40:14.870Z,2.13
2023-02-28T19:43:05.428Z,2.20
2023-02-28T19:45:55.930Z,2.15
2023-02-28T19:48:45.530Z,2.14
2023-02-28T19:51:35.447Z,2.16
2023-02-28T19:54:26.617Z,2.14
2023-02-28T19:57:16.769Z,2.21
2023-02-28T20:00:07.245Z,2.26
2023-02-28T20:03:01.745Z,2.16
2023-02-28T20:06:04.162Z,2.25
2023-02-28T20:08:57.076Z,2.18
2023-02-28T20:11:49.002Z,2.20
2023-02-28T20:14:39.422Z,2.15
2023-02-28T20:17:30.726Z,2.23
2023-02-28T20:20:20.808Z,2.18
2023-02-28T20:23:11.329Z,2.17
2023-02-28T20:26:01.508Z,2.21
2023-02-28T20:28:52.917Z,2.11
2023-02-28T20:31:43.522Z,2.16
2023-02-28T20:34:33.426Z,2.13
2023-02-28T20:37:23.834Z,2.12
2023-02-28T20:40:14.825Z,2.00
2023-02-28T20:43:04.493Z,2.07
2023-02-28T20:45:58.671Z,2.00
2023-02-28T20:48:48.797Z,2.10
2023-02-28T20:51:40.502Z,2.09
2023-02-28T20:54:31.370Z,2.13
2023-02-28T20:57:21.596Z,2.17
2023-02-28T21:00:19.857Z,2.16
2023-02-28T21:03:11.911Z,2.19
2023-02-28T21:06:03.766Z,2.25
2023-02-28T21:08:55.461Z,2.26
2023-02-28T21:11:46.283Z,2.21
2023-02-28T21:14:36.693Z,2.25
2023-02-28T21:17:27.781Z,2.15
2023-02-28T21:20:23.436Z,2.05
2023-02-28T21:23:14.509Z,2.16
2023-02-28T21:26:06.244Z,2.07
2023-02-28T21:28:58.046Z,2.14
2023-02-28T21:31:47.888Z,2.19
2023-02-28T21:34:37.725Z,2.13
2023-02-28T21:37:28.965Z,2.15
2023-02-28T21:40:19.102Z,2.14
2023-02-28T21:43:09.341Z,2.19
2023-02-28T21:46:02.879Z,2.11
2023-02-28T21:48:53.428Z,2.14
2023-02-28T21:51:43.803Z,2.12
2023-02-28T21:54:35.335Z,2.18
2023-02-28T21:57:26.019Z,2.18
2023-02-28T22:00:17.352Z,2.20
2023-02-28T22:03:07.866Z,2.09
2023-02-28T22:05:58.138Z,2.14
2023-02-28T22:08:50.191Z,2.07
2023-02-28T22:11:41.401Z,2.10
2023-02-28T22:14:31.266Z,2.11
2023-02-28T22:17:21.156Z,2.10
2023-02-28T22:20:13.106Z,2.04
2023-02-28T22:23:02.756Z,2.03
2023-02-28T22:25:54.183Z,2.00
2023-02-28T22:28:46.212Z,1.98
2023-02-28T22:31:38.174Z,1.95
2023-02-28T22:34:28.752Z,1.91
2023-02-28T22:37:18.945Z,1.84
2023-02-28T22:40:10.459Z,1.89
2023-02-28T22:43:00.853Z,1.86
2023-02-28T22:45:52.309Z,1.95
2023-02-28T22:48:41.932Z,1.85
2023-02-28T22:51:34.090Z,1.86
2023-02-28T22:54:23.876Z,1.92
2023-02-28T22:57:14.166Z,1.90
2023-02-28T23:00:07.748Z,1.93
2023-02-28T23:02:59.867Z,1.94
2023-02-28T23:05:53.650Z,1.93
2023-02-28T23:08:44.964Z,1.97
2023-02-28T23:11:37.520Z,2.02
2023-02-28T23:14:27.278Z,2.00
2023-02-28T23:17:17.996Z,1.90
2023-02-28T23:20:11.257Z,1.94
2023-02-28T23:23:05.136Z,1.94
2023-02-28T23:25:55.221Z,1.98
2023-02-28T23:28:45.523Z,1.99
2023-02-28T23:31:37.716Z,1.99
2023-02-28T23:34:30.836Z,1.99
2023-02-28T23:37:22.675Z,1.93
2023-02-28T23:40:17.229Z,1.79
2023-02-28T23:43:10.495Z,1.79
2023-02-28T23:46:03.427Z,1.84
2023-02-28T23:48:53.346Z,1.89
2023-02-28T23:51:43.227Z,1.95
2023-02-28T23:54:34.662Z,1.78
2023-02-28T23:57:24.642Z,1.86
